Terminal Aerodrome Forecast
Issued by NWS

Home | Current Version | Previous Version | Text Only | Print | Product List | Glossary On
Versions: 1 2 3 4 5 6 7 8 9 10 11 12 13 14 15 16 17 18 19 20 21 22 23 24 25
000
FTUS42 KCAE 280300 AAC
TAFDNL
TAF AMD
KDNL 280346Z 2804/2824 00000KT P6SM -RA BKN070
     FM280900 VRB03KT 4SM -RA SCT015 OVC025
     FM281500 22005KT P6SM VCSH SCT008 OVC015=

USA.gov is the U.S. government's official web portal to all federal, state and local government web resources and services.